sensor_id;sensor_type;location;lat;lon;timestamp;pressure;altitude;pressure_sealevel;temperature
20730;BMP280;10526;50.850;12.928;2022-08-19T00:03:20;97350.91;;;20.50
20730;BMP280;10526;50.850;12.928;2022-08-19T00:07:43;97344.97;;;20.46
20730;BMP280;10526;50.850;12.928;2022-08-19T00:12:06;97349.06;;;20.36
20730;BMP280;10526;50.850;12.928;2022-08-19T00:16:29;97336.25;;;20.31
20730;BMP280;10526;50.850;12.928;2022-08-19T00:20:52;97345.59;;;20.30
20730;BMP280;10526;50.850;12.928;2022-08-19T00:25:16;97340.19;;;20.30
20730;BMP280;10526;50.850;12.928;2022-08-19T00:29:39;97338.91;;;20.25
20730;BMP280;10526;50.850;12.928;2022-08-19T00:34:02;97338.19;;;20.25
20730;BMP280;10526;50.850;12.928;2022-08-19T00:38:25;97335.72;;;20.27
20730;BMP280;10526;50.850;12.928;2022-08-19T00:42:59;97333.97;;;20.24
20730;BMP280;10526;50.850;12.928;2022-08-19T00:47:21;97331.25;;;20.24
20730;BMP280;10526;50.850;12.928;2022-08-19T00:51:52;97324.38;;;20.23
20730;BMP280;10526;50.850;12.928;2022-08-19T00:56:15;97310.84;;;20.17
20730;BMP280;10526;50.850;12.928;2022-08-19T01:00:38;97304.91;;;20.13
20730;BMP280;10526;50.850;12.928;2022-08-19T01:05:07;97301.38;;;20.07
20730;BMP280;10526;50.850;12.928;2022-08-19T01:09:31;97316.56;;;19.99
20730;BMP280;10526;50.850;12.928;2022-08-19T01:13:54;97316.25;;;19.97
20730;BMP280;10526;50.850;12.928;2022-08-19T01:18:18;97327.91;;;20.03
20730;BMP280;10526;50.850;12.928;2022-08-19T01:22:52;97319.03;;;20.02
20730;BMP280;10526;50.850;12.928;2022-08-19T01:27:16;97321.75;;;20.02
20730;BMP280;10526;50.850;12.928;2022-08-19T01:31:38;97320.53;;;20.03
20730;BMP280;10526;50.850;12.928;2022-08-19T01:36:32;97328.91;;;20.05
20730;BMP280;10526;50.850;12.928;2022-08-19T01:40:55;97318.84;;;20.06
20730;BMP280;10526;50.850;12.928;2022-08-19T01:45:19;97305.56;;;20.08
20730;BMP280;10526;50.850;12.928;2022-08-19T01:49:42;97298.41;;;20.05
20730;BMP280;10526;50.850;12.928;2022-08-19T01:54:04;97294.97;;;20.04
20730;BMP280;10526;50.850;12.928;2022-08-19T01:58:32;97288.09;;;20.03
20730;BMP280;10526;50.850;12.928;2022-08-19T02:02:58;97280.41;;;19.96
20730;BMP280;10526;50.850;12.928;2022-08-19T02:07:21;97289.44;;;19.93
20730;BMP280;10526;50.850;12.928;2022-08-19T02:11:43;97295.59;;;19.94
20730;BMP280;10526;50.850;12.928;2022-08-19T02:16:06;97309.13;;;19.94
20730;BMP280;10526;50.850;12.928;2022-08-19T02:20:28;97326.84;;;19.95
20730;BMP280;10526;50.850;12.928;2022-08-19T02:24:53;97330.50;;;19.92
20730;BMP280;10526;50.850;12.928;2022-08-19T02:29:15;97325.56;;;19.90
20730;BMP280;10526;50.850;12.928;2022-08-19T02:33:38;97328.81;;;19.94
20730;BMP280;10526;50.850;12.928;2022-08-19T02:38:00;97319.72;;;19.97
20730;BMP280;10526;50.850;12.928;2022-08-19T02:42:41;97306.00;;;20.01
20730;BMP280;10526;50.850;12.928;2022-08-19T02:47:04;97328.13;;;19.99
20730;BMP280;10526;50.850;12.928;2022-08-19T02:51:38;97348.03;;;20.02
20730;BMP280;10526;50.850;12.928;2022-08-19T02:56:00;97349.97;;;20.01
20730;BMP280;10526;50.850;12.928;2022-08-19T03:00:23;97354.19;;;20.02
20730;BMP280;10526;50.850;12.928;2022-08-19T03:04:46;97365.22;;;19.99
20730;BMP280;10526;50.850;12.928;2022-08-19T03:09:09;97369.13;;;19.98
20730;BMP280;10526;50.850;12.928;2022-08-19T03:13:32;97368.38;;;19.97
20730;BMP280;10526;50.850;12.928;2022-08-19T03:17:54;97369.88;;;19.98
20730;BMP280;10526;50.850;12.928;2022-08-19T03:22:17;97371.06;;;19.97
20730;BMP280;10526;50.850;12.928;2022-08-19T03:26:48;97370.63;;;19.99
20730;BMP280;10526;50.850;12.928;2022-08-19T03:31:13;97366.69;;;20.00
20730;BMP280;10526;50.850;12.928;2022-08-19T03:36:18;97363.25;;;19.99
20730;BMP280;10526;50.850;12.928;2022-08-19T03:40:42;97359.06;;;19.98
20730;BMP280;10526;50.850;12.928;2022-08-19T03:45:05;97362.22;;;19.97
20730;BMP280;10526;50.850;12.928;2022-08-19T03:49:31;97362.22;;;19.97
20730;BMP280;10526;50.850;12.928;2022-08-19T03:53:55;97362.78;;;20.01
20730;BMP280;10526;50.850;12.928;2022-08-19T03:58:18;97370.88;;;20.01
20730;BMP280;10526;50.850;12.928;2022-08-19T04:02:41;97365.00;;;20.02
20730;BMP280;10526;50.850;12.928;2022-08-19T04:07:19;97362.03;;;20.00
20730;BMP280;10526;50.850;12.928;2022-08-19T04:11:55;97354.09;;;19.97
20730;BMP280;10526;50.850;12.928;2022-08-19T04:16:21;97364.47;;;19.98
20730;BMP280;10526;50.850;12.928;2022-08-19T04:20:55;97362.97;;;19.97
20730;BMP280;10526;50.850;12.928;2022-08-19T04:25:18;97368.13;;;19.95
20730;BMP280;10526;50.850;12.928;2022-08-19T04:29:41;97362.72;;;19.95
20730;BMP280;10526;50.850;12.928;2022-08-19T04:34:11;97357.03;;;19.93
20730;BMP280;10526;50.850;12.928;2022-08-19T04:38:34;97357.22;;;19.90
20730;BMP280;10526;50.850;12.928;2022-08-19T04:42:57;97350.78;;;19.82
20730;BMP280;10526;50.850;12.928;2022-08-19T04:47:19;97350.03;;;19.81
20730;BMP280;10526;50.850;12.928;2022-08-19T04:52:01;97345.84;;;19.80
20730;BMP280;10526;50.850;12.928;2022-08-19T04:56:24;97360.31;;;19.77
20730;BMP280;10526;50.850;12.928;2022-08-19T05:00:48;97368.41;;;19.77
20730;BMP280;10526;50.850;12.928;2022-08-19T05:05:11;97364.22;;;19.76
20730;BMP280;10526;50.850;12.928;2022-08-19T05:09:34;97364.22;;;19.76
20730;BMP280;10526;50.850;12.928;2022-08-19T05:14:17;97364.22;;;19.76
20730;BMP280;10526;50.850;12.928;2022-08-19T05:18:40;97373.53;;;19.75
20730;BMP280;10526;50.850;12.928;2022-08-19T05:23:21;97378.69;;;19.73
20730;BMP280;10526;50.850;12.928;2022-08-19T05:27:43;97384.63;;;19.77
20730;BMP280;10526;50.850;12.928;2022-08-19T05:32:06;97395.50;;;19.83
20730;BMP280;10526;50.850;12.928;2022-08-19T05:36:41;97402.31;;;19.78
20730;BMP280;10526;50.850;12.928;2022-08-19T05:41:14;97419.75;;;19.77
20730;BMP280;10526;50.850;12.928;2022-08-19T05:45:40;97420.50;;;19.77
20730;BMP280;10526;50.850;12.928;2022-08-19T05:50:04;97429.59;;;19.80
20730;BMP280;10526;50.850;12.928;2022-08-19T05:54:26;97435.53;;;19.84
20730;BMP280;10526;50.850;12.928;2022-08-19T05:58:49;97450.09;;;19.87
20730;BMP280;10526;50.850;12.928;2022-08-19T06:03:12;97464.16;;;19.91
20730;BMP280;10526;50.850;12.928;2022-08-19T06:07:36;97468.81;;;19.90
20730;BMP280;10526;50.850;12.928;2022-08-19T06:11:59;97482.56;;;19.92
20730;BMP280;10526;50.850;12.928;2022-08-19T06:16:23;97478.94;;;19.95
20730;BMP280;10526;50.850;12.928;2022-08-19T06:20:45;97488.81;;;19.98
20730;BMP280;10526;50.850;12.928;2022-08-19T06:25:17;97497.94;;;20.01
20730;BMP280;10526;50.850;12.928;2022-08-19T06:29:40;97505.22;;;19.95
20730;BMP280;10526;50.850;12.928;2022-08-19T06:34:06;97504.47;;;19.94
20730;BMP280;10526;50.850;12.928;2022-08-19T06:38:28;97505.97;;;19.95
20730;BMP280;10526;50.850;12.928;2022-08-19T06:42:50;97514.06;;;19.95
20730;BMP280;10526;50.850;12.928;2022-08-19T06:47:20;97527.66;;;20.01
20730;BMP280;10526;50.850;12.928;2022-08-19T06:51:48;97521.63;;;20.12
20730;BMP280;10526;50.850;12.928;2022-08-19T06:56:19;97515.28;;;20.35
20730;BMP280;10526;50.850;12.928;2022-08-19T07:00:42;97518.50;;;20.59
20730;BMP280;10526;50.850;12.928;2022-08-19T07:05:06;97517.59;;;20.68
20730;BMP280;10526;50.850;12.928;2022-08-19T07:09:29;97522.69;;;20.60
20730;BMP280;10526;50.850;12.928;2022-08-19T07:13:53;97511.34;;;20.62
20730;BMP280;10526;50.850;12.928;2022-08-19T07:18:19;97513.50;;;20.78
20730;BMP280;10526;50.850;12.928;2022-08-19T07:22:44;97513.72;;;20.75
20730;BMP280;10526;50.850;12.928;2022-08-19T07:27:07;97532.25;;;20.61
20730;BMP280;10526;50.850;12.928;2022-08-19T07:31:36;97528.31;;;20.36
20730;BMP280;10526;50.850;12.928;2022-08-19T07:35:59;97528.59;;;20.18
20730;BMP280;10526;50.850;12.928;2022-08-19T07:40:21;97548.88;;;20.08
20730;BMP280;10526;50.850;12.928;2022-08-19T07:44:44;97538.16;;;20.14
20730;BMP280;10526;50.850;12.928;2022-08-19T07:49:13;97539.69;;;20.41
20730;BMP280;10526;50.850;12.928;2022-08-19T07:53:40;97536.84;;;20.76
20730;BMP280;10526;50.850;12.928;2022-08-19T07:58:02;97558.53;;;21.07
20730;BMP280;10526;50.850;12.928;2022-08-19T08:02:26;97551.97;;;21.19
20730;BMP280;10526;50.850;12.928;2022-08-19T08:06:49;97563.56;;;21.20
20730;BMP280;10526;50.850;12.928;2022-08-19T08:11:30;97571.38;;;21.12
20730;BMP280;10526;50.850;12.928;2022-08-19T08:15:52;97573.97;;;21.27
20730;BMP280;10526;50.850;12.928;2022-08-19T08:20:17;97573.03;;;21.30
20730;BMP280;10526;50.850;12.928;2022-08-19T08:24:40;97567.97;;;21.43
20730;BMP280;10526;50.850;12.928;2022-08-19T08:29:03;97568.50;;;21.53
20730;BMP280;10526;50.850;12.928;2022-08-19T08:33:33;97578.84;;;21.54
20730;BMP280;10526;50.850;12.928;2022-08-19T08:37:56;97567.50;;;21.50
20730;BMP280;10526;50.850;12.928;2022-08-19T08:42:34;97565.91;;;21.32
20730;BMP280;10526;50.850;12.928;2022-08-19T08:47:02;97590.09;;;21.10
20730;BMP280;10526;50.850;12.928;2022-08-19T08:51:48;97587.47;;;20.95
20730;BMP280;10526;50.850;12.928;2022-08-19T08:56:21;97593.94;;;20.98
20730;BMP280;10526;50.850;12.928;2022-08-19T09:00:47;97593.72;;;21.07
20730;BMP280;10526;50.850;12.928;2022-08-19T09:05:11;97591.72;;;21.28
20730;BMP280;10526;50.850;12.928;2022-08-19T09:09:45;97575.25;;;21.69
20730;BMP280;10526;50.850;12.928;2022-08-19T09:14:35;97556.31;;;22.22
20730;BMP280;10526;50.850;12.928;2022-08-19T09:19:15;97554.72;;;23.25
20730;BMP280;10526;50.850;12.928;2022-08-19T09:23:43;97540.91;;;23.98
20730;BMP280;10526;50.850;12.928;2022-08-19T09:28:05;97552.94;;;24.19
20730;BMP280;10526;50.850;12.928;2022-08-19T09:32:43;97557.69;;;24.13
20730;BMP280;10526;50.850;12.928;2022-08-19T09:37:07;97556.34;;;24.25
20730;BMP280;10526;50.850;12.928;2022-08-19T09:41:31;97559.13;;;24.20
20730;BMP280;10526;50.850;12.928;2022-08-19T09:45:54;97565.97;;;23.80
20730;BMP280;10526;50.850;12.928;2022-08-19T09:50:17;97555.09;;;23.69
20730;BMP280;10526;50.850;12.928;2022-08-19T09:54:40;97559.13;;;24.20
20730;BMP280;10526;50.850;12.928;2022-08-19T09:59:04;97560.47;;;24.79
20730;BMP280;10526;50.850;12.928;2022-08-19T10:03:29;97564.50;;;25.02
20730;BMP280;10526;50.850;12.928;2022-08-19T10:07:52;97559.53;;;25.31
20730;BMP280;10526;50.850;12.928;2022-08-19T10:12:17;97568.66;;;26.01
20730;BMP280;10526;50.850;12.928;2022-08-19T10:16:40;97575.75;;;26.09
20730;BMP280;10526;50.850;12.928;2022-08-19T10:21:15;97575.44;;;26.32
20730;BMP280;10526;50.850;12.928;2022-08-19T10:25:38;97570.44;;;26.36
20730;BMP280;10526;50.850;12.928;2022-08-19T10:30:05;97568.38;;;26.23
20730;BMP280;10526;50.850;12.928;2022-08-19T10:34:31;97577.22;;;25.91
20730;BMP280;10526;50.850;12.928;2022-08-19T10:38:57;97584.09;;;25.55
20730;BMP280;10526;50.850;12.928;2022-08-19T10:43:20;97593.47;;;25.05
20730;BMP280;10526;50.850;12.928;2022-08-19T10:47:42;97607.38;;;24.66
20730;BMP280;10526;50.850;12.928;2022-08-19T10:52:04;97606.47;;;24.52
20730;BMP280;10526;50.850;12.928;2022-08-19T10:56:53;97617.34;;;23.94
20730;BMP280;10526;50.850;12.928;2022-08-19T11:01:18;97609.53;;;23.41
20730;BMP280;10526;50.850;12.928;2022-08-19T11:05:40;97596.44;;;23.22
20730;BMP280;10526;50.850;12.928;2022-08-19T11:10:04;97597.44;;;23.19
20730;BMP280;10526;50.850;12.928;2022-08-19T11:14:32;97597.13;;;23.84
20730;BMP280;10526;50.850;12.928;2022-08-19T11:18:58;97616.59;;;24.00
20730;BMP280;10526;50.850;12.928;2022-08-19T11:23:21;97615.38;;;23.89
20730;BMP280;10526;50.850;12.928;2022-08-19T11:27:43;97619.63;;;23.57
20730;BMP280;10526;50.850;12.928;2022-08-19T11:32:09;97619.16;;;23.08
20730;BMP280;10526;50.850;12.928;2022-08-19T11:36:32;97609.41;;;22.46
20730;BMP280;10526;50.850;12.928;2022-08-19T11:40:58;97615.84;;;21.94
20730;BMP280;10526;50.850;12.928;2022-08-19T11:45:22;97615.16;;;21.68
20730;BMP280;10526;50.850;12.928;2022-08-19T11:49:46;97610.88;;;21.56
20730;BMP280;10526;50.850;12.928;2022-08-19T11:54:09;97609.31;;;21.44
20730;BMP280;10526;50.850;12.928;2022-08-19T11:58:33;97611.03;;;21.41
20730;BMP280;10526;50.850;12.928;2022-08-19T12:02:56;97615.47;;;21.44
20730;BMP280;10526;50.850;12.928;2022-08-19T12:07:18;97632.81;;;21.58
20730;BMP280;10526;50.850;12.928;2022-08-19T12:11:40;97635.53;;;21.58
20730;BMP280;10526;50.850;12.928;2022-08-19T12:16:13;97636.00;;;21.51
20730;BMP280;10526;50.850;12.928;2022-08-19T12:20:39;97638.41;;;21.43
20730;BMP280;10526;50.850;12.928;2022-08-19T12:25:04;97640.63;;;21.45
20730;BMP280;10526;50.850;12.928;2022-08-19T12:29:28;97652.91;;;21.40
20730;BMP280;10526;50.850;12.928;2022-08-19T12:33:51;97652.59;;;21.32
20730;BMP280;10526;50.850;12.928;2022-08-19T12:38:15;97661.13;;;21.25
20730;BMP280;10526;50.850;12.928;2022-08-19T12:42:38;97666.94;;;21.13
20730;BMP280;10526;50.850;12.928;2022-08-19T12:47:04;97655.84;;;21.11
20730;BMP280;10526;50.850;12.928;2022-08-19T12:51:30;97663.75;;;21.14
20730;BMP280;10526;50.850;12.928;2022-08-19T12:55:58;97665.50;;;21.17
20730;BMP280;10526;50.850;12.928;2022-08-19T13:00:22;97667.72;;;21.19
20730;BMP280;10526;50.850;12.928;2022-08-19T13:04:44;97660.53;;;21.16
20730;BMP280;10526;50.850;12.928;2022-08-19T13:09:07;97648.25;;;21.15
20730;BMP280;10526;50.850;12.928;2022-08-19T13:13:29;97635.81;;;21.28
20730;BMP280;10526;50.850;12.928;2022-08-19T13:17:53;97638.94;;;21.53
20730;BMP280;10526;50.850;12.928;2022-08-19T13:22:18;97645.38;;;21.87
20730;BMP280;10526;50.850;12.928;2022-08-19T13:26:40;97648.16;;;22.04
20730;BMP280;10526;50.850;12.928;2022-08-19T13:31:02;97650.63;;;22.02
20730;BMP280;10526;50.850;12.928;2022-08-19T13:35:56;97652.13;;;22.03
20730;BMP280;10526;50.850;12.928;2022-08-19T13:40:24;97646.69;;;22.03
20730;BMP280;10526;50.850;12.928;2022-08-19T13:44:48;97639.00;;;21.95
20730;BMP280;10526;50.850;12.928;2022-08-19T13:49:11;97652.09;;;21.97
20730;BMP280;10526;50.850;12.928;2022-08-19T13:53:34;97637.53;;;22.00
20730;BMP280;10526;50.850;12.928;2022-08-19T13:57:59;97631.88;;;22.04
20730;BMP280;10526;50.850;12.928;2022-08-19T14:02:24;97633.91;;;22.09
20730;BMP280;10526;50.850;12.928;2022-08-19T14:06:46;97628.53;;;22.20
20730;BMP280;10526;50.850;12.928;2022-08-19T14:11:10;97627.16;;;22.41
20730;BMP280;10526;50.850;12.928;2022-08-19T14:15:32;97630.22;;;22.77
20730;BMP280;10526;50.850;12.928;2022-08-19T14:20:03;97627.78;;;22.90
20730;BMP280;10526;50.850;12.928;2022-08-19T14:24:32;97621.88;;;22.97
20730;BMP280;10526;50.850;12.928;2022-08-19T14:28:54;97638.44;;;23.05
20730;BMP280;10526;50.850;12.928;2022-08-19T14:33:19;97638.91;;;22.98
20730;BMP280;10526;50.850;12.928;2022-08-19T14:37:44;97633.22;;;22.84
20730;BMP280;10526;50.850;12.928;2022-08-19T14:42:08;97646.25;;;22.75
20730;BMP280;10526;50.850;12.928;2022-08-19T14:46:32;97642.53;;;22.67
20730;BMP280;10526;50.850;12.928;2022-08-19T14:50:54;97637.31;;;22.57
20730;BMP280;10526;50.850;12.928;2022-08-19T14:55:17;97649.38;;;22.45
20730;BMP280;10526;50.850;12.928;2022-08-19T14:59:40;97639.69;;;22.27
20730;BMP280;10526;50.850;12.928;2022-08-19T15:04:03;97640.59;;;22.13
20730;BMP280;10526;50.850;12.928;2022-08-19T15:08:26;97647.72;;;22.11
20730;BMP280;10526;50.850;12.928;2022-08-19T15:12:49;97643.31;;;22.13
20730;BMP280;10526;50.850;12.928;2022-08-19T15:17:12;97638.09;;;22.10
20730;BMP280;10526;50.850;12.928;2022-08-19T15:21:34;97642.31;;;22.11
20730;BMP280;10526;50.850;12.928;2022-08-19T15:25:58;97646.19;;;21.98
20730;BMP280;10526;50.850;12.928;2022-08-19T15:30:25;97654.25;;;21.87
20730;BMP280;10526;50.850;12.928;2022-08-19T15:34:47;97648.03;;;21.81
20730;BMP280;10526;50.850;12.928;2022-08-19T15:39:10;97636.44;;;21.75
20730;BMP280;10526;50.850;12.928;2022-08-19T15:43:33;97619.34;;;21.69
20730;BMP280;10526;50.850;12.928;2022-08-19T15:48:03;97619.81;;;21.62
20730;BMP280;10526;50.850;12.928;2022-08-19T15:52:26;97630.06;;;21.52
20730;BMP280;10526;50.850;12.928;2022-08-19T15:56:49;97629.50;;;21.43
20730;BMP280;10526;50.850;12.928;2022-08-19T16:01:31;97632.41;;;21.33
20730;BMP280;10526;50.850;12.928;2022-08-19T16:06:12;97631.88;;;21.29
20730;BMP280;10526;50.850;12.928;2022-08-19T16:10:50;97630.16;;;21.32
20730;BMP280;10526;50.850;12.928;2022-08-19T16:15:12;97632.03;;;21.20
20730;BMP280;10526;50.850;12.928;2022-08-19T16:19:36;97628.25;;;21.12
20730;BMP280;10526;50.850;12.928;2022-08-19T16:24:04;97628.69;;;21.05
20730;BMP280;10526;50.850;12.928;2022-08-19T16:28:27;97629.66;;;21.02
20730;BMP280;10526;50.850;12.928;2022-08-19T16:32:49;97625.66;;;20.97
20730;BMP280;10526;50.850;12.928;2022-08-19T16:37:12;97620.72;;;20.96
20730;BMP280;10526;50.850;12.928;2022-08-19T16:41:35;97620.47;;;20.94
20730;BMP280;10526;50.850;12.928;2022-08-19T16:45:58;97619.41;;;20.86
20730;BMP280;10526;50.850;12.928;2022-08-19T16:50:21;97623.69;;;20.78
20730;BMP280;10526;50.850;12.928;2022-08-19T16:55:04;97642.06;;;20.68
20730;BMP280;10526;50.850;12.928;2022-08-19T16:59:27;97641.97;;;20.62
20730;BMP280;10526;50.850;12.928;2022-08-19T17:03:49;97629.44;;;20.59
20730;BMP280;10526;50.850;12.928;2022-08-19T17:08:15;97633.88;;;20.62
20730;BMP280;10526;50.850;12.928;2022-08-19T17:12:38;97631.16;;;20.62
20730;BMP280;10526;50.850;12.928;2022-08-19T17:17:01;97623.50;;;20.55
20730;BMP280;10526;50.850;12.928;2022-08-19T17:21:27;97623.69;;;20.52
20730;BMP280;10526;50.850;12.928;2022-08-19T17:25:50;97624.13;;;20.50
20730;BMP280;10526;50.850;12.928;2022-08-19T17:30:13;97622.19;;;20.51
20730;BMP280;10526;50.850;12.928;2022-08-19T17:34:36;97634.97;;;20.50
20730;BMP280;10526;50.850;12.928;2022-08-19T17:39:01;97641.25;;;20.42
20730;BMP280;10526;50.850;12.928;2022-08-19T17:43:23;97646.03;;;20.32
20730;BMP280;10526;50.850;12.928;2022-08-19T17:47:55;97644.69;;;20.22
20730;BMP280;10526;50.850;12.928;2022-08-19T17:52:18;97640.59;;;20.12
20730;BMP280;10526;50.850;12.928;2022-08-19T17:56:42;97648.38;;;20.04
20730;BMP280;10526;50.850;12.928;2022-08-19T18:01:06;97651.19;;;19.95
20730;BMP280;10526;50.850;12.928;2022-08-19T18:05:38;97659.19;;;19.89
20730;BMP280;10526;50.850;12.928;2022-08-19T18:10:01;97664.03;;;19.85
20730;BMP280;10526;50.850;12.928;2022-08-19T18:14:29;97674.31;;;19.81
20730;BMP280;10526;50.850;12.928;2022-08-19T18:18:54;97684.56;;;19.77
20730;BMP280;10526;50.850;12.928;2022-08-19T18:23:17;97695.09;;;19.75
20730;BMP280;10526;50.850;12.928;2022-08-19T18:28:00;97703.38;;;19.71
20730;BMP280;10526;50.850;12.928;2022-08-19T18:32:22;97711.97;;;19.70
20730;BMP280;10526;50.850;12.928;2022-08-19T18:36:47;97703.56;;;19.68
20730;BMP280;10526;50.850;12.928;2022-08-19T18:41:14;97702.53;;;19.65
20730;BMP280;10526;50.850;12.928;2022-08-19T18:45:55;97707.66;;;19.63
20730;BMP280;10526;50.850;12.928;2022-08-19T18:50:36;97702.72;;;19.62
20730;BMP280;10526;50.850;12.928;2022-08-19T18:55:03;97703.38;;;19.57
20730;BMP280;10526;50.850;12.928;2022-08-19T18:59:28;97703.38;;;19.57
20730;BMP280;10526;50.850;12.928;2022-08-19T19:03:53;97703.38;;;19.57
20730;BMP280;10526;50.850;12.928;2022-08-19T19:08:16;97705.78;;;19.55
20730;BMP280;10526;50.850;12.928;2022-08-19T19:12:42;97727.16;;;19.53
20730;BMP280;10526;50.850;12.928;2022-08-19T19:17:13;97718.28;;;19.52
20730;BMP280;10526;50.850;12.928;2022-08-19T19:21:35;97712.13;;;19.52
20730;BMP280;10526;50.850;12.928;2022-08-19T19:25:58;97720.69;;;19.50
20730;BMP280;10526;50.850;12.928;2022-08-19T19:30:21;97715.47;;;19.47
20730;BMP280;10526;50.850;12.928;2022-08-19T19:34:52;97716.22;;;19.47
20730;BMP280;10526;50.850;12.928;2022-08-19T19:39:15;97723.84;;;19.49
20730;BMP280;10526;50.850;12.928;2022-08-19T19:43:58;97719.03;;;19.53
20730;BMP280;10526;50.850;12.928;2022-08-19T19:48:41;97719.03;;;19.53
20730;BMP280;10526;50.850;12.928;2022-08-19T19:53:03;97708.94;;;19.53
20730;BMP280;10526;50.850;12.928;2022-08-19T19:57:27;97705.03;;;19.54
20730;BMP280;10526;50.850;12.928;2022-08-19T20:01:51;97688.09;;;19.54
20730;BMP280;10526;50.850;12.928;2022-08-19T20:06:17;97693.78;;;19.56
20730;BMP280;10526;50.850;12.928;2022-08-19T20:10:42;97675.13;;;19.58
20730;BMP280;10526;50.850;12.928;2022-08-19T20:15:05;97670.22;;;19.56
20730;BMP280;10526;50.850;12.928;2022-08-19T20:19:30;97682.69;;;19.54
20730;BMP280;10526;50.850;12.928;2022-08-19T20:23:59;97679.44;;;19.50
20730;BMP280;10526;50.850;12.928;2022-08-19T20:28:30;97678.59;;;19.43
20730;BMP280;10526;50.850;12.928;2022-08-19T20:32:53;97674.75;;;19.35
20730;BMP280;10526;50.850;12.928;2022-08-19T20:37:17;97689.38;;;19.29
20730;BMP280;10526;50.850;12.928;2022-08-19T20:41:40;97708.72;;;19.27
20730;BMP280;10526;50.850;12.928;2022-08-19T20:46:04;97721.19;;;19.25
20730;BMP280;10526;50.850;12.928;2022-08-19T20:50:27;97726.13;;;19.26
20730;BMP280;10526;50.850;12.928;2022-08-19T20:54:51;97723.44;;;19.26
20730;BMP280;10526;50.850;12.928;2022-08-19T20:59:13;97732.78;;;19.25
20730;BMP280;10526;50.850;12.928;2022-08-19T21:03:39;97720.16;;;19.22
20730;BMP280;10526;50.850;12.928;2022-08-19T21:08:05;97722.13;;;19.22
20730;BMP280;10526;50.850;12.928;2022-08-19T21:12:29;97718.41;;;19.19
20730;BMP280;10526;50.850;12.928;2022-08-19T21:16:51;97722.31;;;19.18
20730;BMP280;10526;50.850;12.928;2022-08-19T21:21:14;97722.31;;;19.18
20730;BMP280;10526;50.850;12.928;2022-08-19T21:25:38;97722.88;;;19.22
20730;BMP280;10526;50.850;12.928;2022-08-19T21:30:05;97722.88;;;19.22
20730;BMP280;10526;50.850;12.928;2022-08-19T21:34:28;97727.25;;;19.20
20730;BMP280;10526;50.850;12.928;2022-08-19T21:38:50;97741.22;;;19.18
20730;BMP280;10526;50.850;12.928;2022-08-19T21:43:13;97741.66;;;19.17
20730;BMP280;10526;50.850;12.928;2022-08-19T21:47:36;97736.72;;;19.15
20730;BMP280;10526;50.850;12.928;2022-08-19T21:51:59;97731.03;;;19.13
20730;BMP280;10526;50.850;12.928;2022-08-19T21:56:23;97722.66;;;19.11
20730;BMP280;10526;50.850;12.928;2022-08-19T22:00:45;97708.84;;;19.09
20730;BMP280;10526;50.850;12.928;2022-08-19T22:05:08;97718.00;;;19.11
20730;BMP280;10526;50.850;12.928;2022-08-19T22:09:30;97713.34;;;19.12
20730;BMP280;10526;50.850;12.928;2022-08-19T22:13:53;97716.34;;;19.14
20730;BMP280;10526;50.850;12.928;2022-08-19T22:18:17;97717.53;;;19.13
20730;BMP280;10526;50.850;12.928;2022-08-19T22:22:51;97716.06;;;19.12
20730;BMP280;10526;50.850;12.928;2022-08-19T22:27:14;97726.84;;;19.12
20730;BMP280;10526;50.850;12.928;2022-08-19T22:31:36;97734.03;;;19.15
20730;BMP280;10526;50.850;12.928;2022-08-19T22:36:00;97727.41;;;19.16
20730;BMP280;10526;50.850;12.928;2022-08-19T22:40:22;97709.28;;;19.17
20730;BMP280;10526;50.850;12.928;2022-08-19T22:44:45;97703.13;;;19.16
20730;BMP280;10526;50.850;12.928;2022-08-19T22:49:07;97705.97;;;19.12
20730;BMP280;10526;50.850;12.928;2022-08-19T22:53:31;97719.66;;;19.09
20730;BMP280;10526;50.850;12.928;2022-08-19T22:57:54;97700.84;;;19.00
20730;BMP280;10526;50.850;12.928;2022-08-19T23:02:27;97712.84;;;18.99
20730;BMP280;10526;50.850;12.928;2022-08-19T23:06:49;97714.78;;;18.98
20730;BMP280;10526;50.850;12.928;2022-08-19T23:11:13;97721.69;;;18.99
20730;BMP280;10526;50.850;12.928;2022-08-19T23:15:36;97733.69;;;18.98
20730;BMP280;10526;50.850;12.928;2022-08-19T23:19:58;97723.34;;;18.97
20730;BMP280;10526;50.850;12.928;2022-08-19T23:24:21;97721.84;;;18.96
20730;BMP280;10526;50.850;12.928;2022-08-19T23:28:43;97720.38;;;18.95
20730;BMP280;10526;50.850;12.928;2022-08-19T23:33:35;97720.09;;;18.93
20730;BMP280;10526;50.850;12.928;2022-08-19T23:38:12;97717.38;;;18.93
20730;BMP280;10526;50.850;12.928;2022-08-19T23:42:40;97708.81;;;18.94
20730;BMP280;10526;50.850;12.928;2022-08-19T23:47:03;97705.84;;;18.92
20730;BMP280;10526;50.850;12.928;2022-08-19T23:51:27;97706.59;;;18.93
20730;BMP280;10526;50.850;12.928;2022-08-19T23:55:50;97699.69;;;18.92
